Time;durP1;ratioP1;P1;durP2;ratioP2;P2;SDS_P1;SDS_P2;PMS_P1;PMS_P2;Temp;Humidity;BMP_temperature;BMP_pressure;BME280_temperature;BME280_humidity;BME280_pressure;Samples;Min_cycle;Max_cycle;Signal;HPM_P1;HPM_P2
2023/01/06 00:00:07;;;;;;;3.85;2.50;;;7.60;99.90;;;;;;2079437;28;20407;-75
2023/01/06 00:01:16;;;;;;;5.00;2.50;;;7.60;99.90;;;;;;2081948;28;20131;-74
2023/01/06 00:02:17;;;;;;;6.40;3.08;;;7.60;99.90;;;;;;2084336;28;20056;-75
2023/01/06 00:03:17;;;;;;;6.15;2.95;;;7.70;99.90;;;;;;2074505;28;20116;-74
2023/01/06 00:04:18;;;;;;;4.63;2.83;;;7.70;99.90;;;;;;2068230;28;20029;-76
2023/01/06 00:05:18;;;;;;;6.50;3.38;;;7.70;99.90;;;;;;2090958;28;20032;-76
2023/01/06 00:06:26;;;;;;;5.45;2.80;;;7.70;99.90;;;;;;2074140;28;20033;-74
2023/01/06 00:07:26;;;;;;;4.28;3.08;;;7.70;99.90;;;;;;2079418;28;20175;-76
2023/01/06 00:08:27;;;;;;;4.03;2.83;;;7.70;99.90;;;;;;2077881;28;20115;-76
2023/01/06 00:09:27;;;;;;;4.28;2.78;;;7.70;99.90;;;;;;2068445;28;20033;-76
2023/01/06 00:10:28;;;;;;;5.30;3.35;;;7.70;99.90;;;;;;2087540;28;20089;-74
2023/01/06 00:11:29;;;;;;;5.60;3.05;;;7.60;99.90;;;;;;2084914;28;20407;-75
2023/01/06 00:12:30;;;;;;;5.30;3.20;;;7.60;99.90;;;;;;2070890;28;20424;-76
2023/01/06 00:13:31;;;;;;;5.43;2.90;;;7.70;99.90;;;;;;2070891;28;20037;-74
2023/01/06 00:14:31;;;;;;;5.85;3.20;;;7.60;99.90;;;;;;2077472;28;20317;-74
2023/01/06 00:15:32;;;;;;;4.32;3.25;;;7.60;99.90;;;;;;2080894;28;20480;-76
2023/01/06 00:16:34;;;;;;;4.45;3.17;;;7.60;99.90;;;;;;2069541;28;20075;-74
2023/01/06 00:17:35;;;;;;;5.53;3.08;;;7.60;99.90;;;;;;2059391;28;20025;-75
2023/01/06 00:18:35;;;;;;;4.07;2.95;;;7.60;99.90;;;;;;2060650;28;20520;-75
2023/01/06 00:19:36;;;;;;;3.80;2.97;;;7.60;99.90;;;;;;2081923;28;20021;-75
2023/01/06 00:20:36;;;;;;;6.18;3.38;;;7.60;99.90;;;;;;2085967;28;20029;-75
2023/01/06 00:21:37;;;;;;;4.20;3.00;;;7.60;99.90;;;;;;2084674;28;20043;-75
2023/01/06 00:22:39;;;;;;;4.22;3.20;;;7.60;99.90;;;;;;2071515;28;20030;-75
2023/01/06 00:23:40;;;;;;;6.03;3.50;;;7.60;99.90;;;;;;2075314;28;20044;-75
2023/01/06 00:24:41;;;;;;;6.53;3.70;;;7.60;99.90;;;;;;2070874;28;20504;-75
2023/01/06 00:25:49;;;;;;;4.10;3.50;;;7.60;99.90;;;;;;2076021;28;20250;-75
2023/01/06 00:26:49;;;;;;;6.03;4.20;;;7.60;99.90;;;;;;2085337;28;20056;-74
2023/01/06 00:27:50;;;;;;;5.47;3.60;;;7.60;99.90;;;;;;2077504;28;20033;-75
2023/01/06 00:28:52;;;;;;;6.03;3.80;;;7.50;99.90;;;;;;2077937;28;20033;-75
2023/01/06 00:29:53;;;;;;;4.95;3.45;;;7.50;99.90;;;;;;2069683;28;20072;-75
2023/01/06 00:30:54;;;;;;;5.82;3.65;;;7.60;99.90;;;;;;2080325;28;20613;-75
2023/01/06 00:31:54;;;;;;;5.38;3.35;;;7.60;99.90;;;;;;2087500;28;20496;-74
2023/01/06 00:32:55;;;;;;;4.75;3.10;;;7.60;99.90;;;;;;2078840;28;20128;-75
2023/01/06 00:33:56;;;;;;;4.72;3.15;;;7.60;99.90;;;;;;2078984;28;20025;-75
2023/01/06 00:34:57;;;;;;;3.83;3.13;;;7.60;99.90;;;;;;2080764;28;20625;-75
2023/01/06 00:35:58;;;;;;;4.18;3.10;;;7.60;99.90;;;;;;2074688;28;20511;-75
2023/01/06 00:36:59;;;;;;;4.03;3.20;;;7.60;99.90;;;;;;2084494;28;20043;-75
2023/01/06 00:38:02;;;;;;;4.38;3.40;;;7.60;99.90;;;;;;2084086;28;20098;-75
2023/01/06 00:39:02;;;;;;;5.07;3.13;;;7.60;99.90;;;;;;2075093;28;20060;-77
2023/01/06 00:40:03;;;;;;;4.70;3.30;;;7.60;99.90;;;;;;2080631;28;20116;-76
2023/01/06 00:42:29;;;;;;;6.55;3.22;;;7.60;99.90;;;;;;2074089;28;20037;-76
2023/01/06 00:43:30;;;;;;;6.88;3.45;;;7.70;99.90;;;;;;2080212;28;20024;-74
2023/01/06 00:44:38;;;;;;;7.47;3.50;;;7.60;99.90;;;;;;2078225;28;20088;-74
2023/01/06 00:45:39;;;;;;;6.32;3.50;;;7.60;99.90;;;;;;2083546;28;20025;-74
2023/01/06 00:46:39;;;;;;;5.68;3.60;;;7.60;99.90;;;;;;2086312;28;20029;-74
2023/01/06 00:47:40;;;;;;;6.72;3.65;;;7.60;99.90;;;;;;2094598;28;20289;-76
2023/01/06 00:48:41;;;;;;;6.78;4.30;;;7.60;99.90;;;;;;2095525;28;20032;-74
2023/01/06 00:49:41;;;;;;;8.00;4.63;;;7.60;99.90;;;;;;2080281;28;20120;-76
2023/01/06 00:50:42;;;;;;;7.63;4.55;;;7.60;99.90;;;;;;2077349;28;20025;-76
2023/01/06 00:51:42;;;;;;;8.27;4.57;;;7.60;99.90;;;;;;2069448;28;20048;-76
2023/01/06 00:52:46;;;;;;;8.50;4.25;;;7.60;99.90;;;;;;2068989;28;20110;-76
2023/01/06 00:53:46;;;;;;;6.07;3.90;;;7.60;99.90;;;;;;2076711;28;20232;-74
2023/01/06 00:54:47;;;;;;;6.45;3.83;;;7.60;99.90;;;;;;2070685;28;20528;-74
2023/01/06 00:55:48;;;;;;;7.40;4.05;;;7.60;99.90;;;;;;2070855;28;20025;-74
2023/01/06 00:56:50;;;;;;;4.93;3.55;;;7.60;99.90;;;;;;2083733;28;20028;-75
2023/01/06 00:57:52;;;;;;;6.25;3.67;;;7.60;99.90;;;;;;2090378;28;20029;-75
2023/01/06 00:58:52;;;;;;;4.15;3.22;;;7.60;99.90;;;;;;2085586;28;20032;-75
2023/01/06 00:59:53;;;;;;;4.80;3.40;;;7.60;99.90;;;;;;2086336;28;20064;-75
2023/01/06 01:00:53;;;;;;;5.05;3.40;;;7.60;99.90;;;;;;2075030;28;20033;-76
2023/01/06 01:01:55;;;;;;;4.05;3.08;;;7.60;99.90;;;;;;2077635;28;20037;-76
2023/01/06 01:02:56;;;;;;;6.30;4.00;;;7.60;99.90;;;;;;2074627;28;20041;-76
2023/01/06 01:03:56;;;;;;;6.88;3.70;;;7.60;99.90;;;;;;2076158;28;20040;-77
2023/01/06 01:04:57;;;;;;;6.43;4.03;;;7.60;99.90;;;;;;2083367;28;20138;-76
2023/01/06 01:05:59;;;;;;;6.20;3.85;;;7.60;99.90;;;;;;2087857;28;20055;-76
2023/01/06 01:06:59;;;;;;;5.63;3.80;;;7.60;99.90;;;;;;2079265;28;20071;-76
2023/01/06 01:08:00;;;;;;;5.95;3.70;;;7.60;99.90;;;;;;2083009;28;20447;-76
2023/01/06 01:09:02;;;;;;;7.00;3.83;;;7.60;99.90;;;;;;2077269;28;20041;-75
2023/01/06 01:10:03;;;;;;;6.28;4.03;;;7.60;99.90;;;;;;2069405;28;20030;-75
2023/01/06 01:11:08;;;;;;;7.60;4.07;;;7.50;99.90;;;;;;2077658;28;20589;-75
2023/01/06 01:12:13;;;;;;;5.82;4.10;;;7.60;99.90;;;;;;2075092;28;20117;-75
2023/01/06 01:13:14;;;;;;;5.05;3.72;;;7.60;99.90;;;;;;2079682;28;20145;-75
2023/01/06 01:14:17;;;;;;;5.72;3.80;;;7.60;99.90;;;;;;2072263;28;20137;-75
2023/01/06 01:15:18;;;;;;;6.65;4.00;;;7.60;99.90;;;;;;2074356;28;20061;-75
2023/01/06 01:16:18;;;;;;;6.50;3.58;;;7.60;99.90;;;;;;2084988;28;20478;-75
2023/01/06 01:17:27;;;;;;;4.43;3.50;;;7.60;99.90;;;;;;2079756;28;20025;-75
2023/01/06 01:18:29;;;;;;;6.93;3.88;;;7.60;99.90;;;;;;2076213;28;20582;-74
2023/01/06 01:19:30;;;;;;;6.93;3.80;;;7.60;99.90;;;;;;2088332;28;20075;-74
2023/01/06 01:20:31;;;;;;;5.68;4.05;;;7.60;99.90;;;;;;2077705;28;20040;-76
2023/01/06 01:21:31;;;;;;;5.07;3.80;;;7.60;99.90;;;;;;2069153;28;20512;-76
2023/01/06 01:22:32;;;;;;;7.68;4.10;;;7.60;99.90;;;;;;2077287;28;20043;-74
2023/01/06 01:23:34;;;;;;;5.15;3.95;;;7.70;99.90;;;;;;2077394;28;20029;-74
2023/01/06 01:24:35;;;;;;;5.97;4.05;;;7.70;99.90;;;;;;2080209;28;20092;-74
2023/01/06 01:25:35;;;;;;;6.85;4.20;;;7.60;99.90;;;;;;2078712;28;20104;-77
2023/01/06 01:26:36;;;;;;;8.20;4.88;;;7.70;99.90;;;;;;2065634;28;20108;-75
2023/01/06 01:27:37;;;;;;;7.10;4.57;;;7.70;99.90;;;;;;2070348;28;20037;-75
2023/01/06 01:28:37;;;;;;;7.68;4.82;;;7.70;99.90;;;;;;2088883;28;20033;-75
2023/01/06 01:29:38;;;;;;;6.25;4.47;;;7.60;99.90;;;;;;2086768;28;20035;-75
2023/01/06 01:30:38;;;;;;;6.60;4.70;;;7.70;99.90;;;;;;2077764;28;20080;-75
2023/01/06 01:31:40;;;;;;;6.85;4.80;;;7.70;99.90;;;;;;2069008;28;20033;-74
2023/01/06 01:32:40;;;;;;;7.75;4.88;;;7.60;99.90;;;;;;2077116;28;20322;-75
2023/01/06 01:33:42;;;;;;;6.93;4.78;;;7.60;99.90;;;;;;2088296;28;20028;-75
2023/01/06 01:34:42;;;;;;;7.53;4.97;;;7.70;99.90;;;;;;2087442;28;20511;-76
2023/01/06 01:35:43;;;;;;;8.13;5.18;;;7.70;99.90;;;;;;2080351;28;20033;-74
2023/01/06 01:36:45;;;;;;;7.78;4.80;;;7.70;99.90;;;;;;2078615;28;20029;-75
2023/01/06 01:37:46;;;;;;;8.73;5.40;;;7.70;99.90;;;;;;2088068;28;20297;-74
2023/01/06 01:38:46;;;;;;;9.23;5.35;;;7.70;99.90;;;;;;2073941;28;20029;-74
2023/01/06 01:39:48;;;;;;;8.50;5.10;;;7.70;99.90;;;;;;2075212;28;20079;-74
2023/01/06 01:40:49;;;;;;;8.68;4.90;;;7.70;99.90;;;;;;2076673;28;20021;-75
2023/01/06 01:41:50;;;;;;;9.15;5.25;;;7.70;99.90;;;;;;2069454;28;20022;-76
2023/01/06 01:42:51;;;;;;;9.77;5.53;;;7.70;99.90;;;;;;2071476;28;20610;-74
2023/01/06 01:43:55;;;;;;;9.63;5.55;;;7.70;99.90;;;;;;2078416;28;20121;-76
2023/01/06 01:45:05;;;;;;;7.95;5.10;;;7.70;99.90;;;;;;2071072;28;20109;-75
2023/01/06 01:46:05;;;;;;;10.10;5.35;;;7.60;99.90;;;;;;2070480;28;20037;-75
2023/01/06 01:47:07;;;;;;;8.45;5.30;;;7.60;99.90;;;;;;2071653;28;20053;-74
2023/01/06 01:48:20;;;;;;;8.65;5.25;;;7.70;99.90;;;;;;2078321;28;20393;-75
2023/01/06 01:49:25;;;;;;;9.02;4.80;;;7.70;99.90;;;;;;2078171;28;20037;-75
2023/01/06 01:50:34;;;;;;;8.82;5.35;;;7.60;99.90;;;;;;2070984;28;20072;-75
2023/01/06 01:51:39;;;;;;;9.32;5.15;;;7.60;99.90;;;;;;2071216;28;20025;-75
2023/01/06 01:52:42;;;;;;;8.20;4.93;;;7.60;99.90;;;;;;2070144;28;20100;-76
2023/01/06 01:53:50;;;;;;;9.85;5.28;;;7.60;99.90;;;;;;2059625;28;20591;-76
2023/01/06 01:54:53;;;;;;;8.43;5.00;;;7.60;99.90;;;;;;2071242;28;20610;-77
2023/01/06 01:55:57;;;;;;;7.82;5.28;;;7.60;99.90;;;;;;2078899;28;20024;-75
2023/01/06 01:57:08;;;;;;;7.32;5.03;;;7.60;99.90;;;;;;2091996;28;20102;-76
2023/01/06 01:58:24;;;;;;;7.45;5.10;;;7.60;99.90;;;;;;2086671;28;20029;-77
2023/01/06 01:59:29;;;;;;;8.15;5.30;;;7.60;99.90;;;;;;2080735;28;20028;-76
2023/01/06 02:00:30;;;;;;;8.32;5.47;;;7.50;99.90;;;;;;2096528;28;20028;-76
2023/01/06 02:01:31;;;;;;;10.13;5.35;;;7.50;99.90;;;;;;2085366;28;20107;-76
2023/01/06 02:02:32;;;;;;;9.57;5.60;;;7.50;99.90;;;;;;2077023;28;20193;-76
2023/01/06 02:03:33;;;;;;;7.93;5.13;;;7.50;99.90;;;;;;2068202;28;20022;-76
2023/01/06 02:04:38;;;;;;;8.60;4.97;;;7.50;99.90;;;;;;2067788;28;20022;-76
2023/01/06 02:05:48;;;;;;;7.45;5.00;;;7.40;99.90;;;;;;2072316;28;20033;-75
2023/01/06 02:06:49;;;;;;;8.45;5.10;;;7.40;99.90;;;;;;2082063;28;20032;-75
2023/01/06 02:07:50;;;;;;;7.82;5.10;;;7.40;99.90;;;;;;2077877;28;20021;-75
2023/01/06 02:09:20;;;;;;;9.00;4.97;;;7.40;99.90;;;;;;2084138;28;20036;-75
2023/01/06 02:10:22;;;;;;;7.55;4.80;;;7.40;99.90;;;;;;2083994;28;20107;-75
2023/01/06 02:11:26;;;;;;;8.05;5.30;;;7.40;99.90;;;;;;2077070;28;20033;-75
2023/01/06 02:12:27;;;;;;;7.93;5.00;;;7.40;99.90;;;;;;2080269;28;20029;-75
2023/01/06 02:13:27;;;;;;;6.85;4.95;;;7.40;99.90;;;;;;2078357;28;20044;-77
2023/01/06 02:14:28;;;;;;;7.20;4.90;;;7.40;99.90;;;;;;2075334;28;20384;-77
2023/01/06 02:15:33;;;;;;;8.63;5.10;;;7.40;99.90;;;;;;2078493;28;20376;-77
2023/01/06 02:16:51;;;;;;;7.35;4.97;;;7.40;99.90;;;;;;2069875;28;20036;-77
2023/01/06 02:18:15;;;;;;;7.53;4.90;;;7.40;99.90;;;;;;2072259;28;20433;-76
2023/01/06 02:19:22;;;;;;;8.32;5.03;;;7.40;99.90;;;;;;2080871;28;20025;-76
2023/01/06 02:20:34;;;;;;;6.97;4.68;;;7.30;99.90;;;;;;2086383;28;20052;-76
2023/01/06 02:22:13;;;;;;;7.57;5.30;;;7.40;99.90;;;;;;2066724;28;20517;-76
2023/01/06 02:23:22;;;;;;;9.35;5.50;;;7.40;99.90;;;;;;2065624;28;20048;-76
2023/01/06 02:25:06;;;;;;;10.18;5.38;;;7.30;99.90;;;;;;2077433;28;20033;-77
2023/01/06 02:26:31;;;;;;;9.63;5.53;;;7.30;99.90;;;;;;2085464;28;20087;-76
2023/01/06 02:28:05;;;;;;;10.45;5.40;;;7.30;99.90;;;;;;2076592;28;20065;-77
2023/01/06 02:29:33;;;;;;;8.73;5.07;;;7.30;99.90;;;;;;2081372;28;20040;-76
2023/01/06 02:31:17;;;;;;;9.18;5.05;;;7.30;99.90;;;;;;2080945;28;20119;-76
2023/01/06 02:32:36;;;;;;;7.35;4.97;;;7.20;99.90;;;;;;2069767;28;20566;-76
2023/01/06 02:33:44;;;;;;;13.27;5.80;;;7.20;99.90;;;;;;2072399;28;20211;-76
2023/01/06 02:35:17;;;;;;;9.43;5.20;;;7.20;99.90;;;;;;2082243;28;20041;-76
2023/01/06 02:37:03;;;;;;;8.70;5.38;;;7.20;99.90;;;;;;2075439;28;20037;-75
2023/01/06 02:38:33;;;;;;;11.57;5.05;;;7.20;99.90;;;;;;2061997;28;20311;-75
2023/01/06 02:39:47;;;;;;;7.13;4.90;;;7.10;99.90;;;;;;2081167;28;20074;-75
2023/01/06 02:41:01;;;;;;;8.10;5.15;;;7.20;99.90;;;;;;2077905;28;20143;-76
2023/01/06 02:42:41;;;;;;;9.70;5.50;;;7.20;99.90;;;;;;2070749;28;20041;-75
2023/01/06 02:43:50;;;;;;;9.43;5.60;;;7.10;99.90;;;;;;2045407;28;20054;-77
2023/01/06 02:44:59;;;;;;;8.07;5.13;;;7.10;99.90;;;;;;2070618;28;20507;-76
2023/01/06 02:46:08;;;;;;;9.73;5.40;;;7.10;99.90;;;;;;2079481;28;20025;-76
2023/01/06 02:47:31;;;;;;;6.70;4.93;;;7.20;99.90;;;;;;2078180;28;20321;-74
2023/01/06 02:48:44;;;;;;;9.25;5.07;;;7.20;99.90;;;;;;2081251;28;20082;-75
2023/01/06 02:49:56;;;;;;;10.05;5.07;;;7.20;99.90;;;;;;2070886;28;20653;-76
2023/01/06 02:51:10;;;;;;;8.55;5.05;;;7.20;99.90;;;;;;2079126;28;20028;-75
2023/01/06 02:52:27;;;;;;;8.32;5.43;;;7.20;99.90;;;;;;2084208;28;20118;-76
2023/01/06 02:53:42;;;;;;;9.55;5.50;;;7.20;99.90;;;;;;2074139;28;20036;-76
2023/01/06 02:54:55;;;;;;;6.35;4.80;;;7.20;99.90;;;;;;2075213;28;20430;-76
2023/01/06 02:55:57;;;;;;;8.48;5.43;;;7.30;99.90;;;;;;2070220;28;20022;-76
2023/01/06 02:57:12;;;;;;;10.73;5.50;;;7.20;99.90;;;;;;2076929;28;20515;-76
2023/01/06 02:58:26;;;;;;;11.23;4.97;;;7.20;99.90;;;;;;2086026;28;20589;-76
2023/01/06 02:59:35;;;;;;;9.50;5.18;;;7.20;99.90;;;;;;2078317;28;20506;-76
2023/01/06 03:00:42;;;;;;;8.45;5.20;;;7.20;99.90;;;;;;2076988;28;20040;-79
2023/01/06 03:01:45;;;;;;;8.38;5.10;;;7.20;99.90;;;;;;2070751;28;20029;-77
2023/01/06 03:02:53;;;;;;;7.78;4.90;;;7.30;99.90;;;;;;2080029;28;20036;-77
2023/01/06 03:03:57;;;;;;;8.30;5.38;;;7.20;99.90;;;;;;2083285;28;20123;-76
2023/01/06 03:05:03;;;;;;;8.80;5.82;;;7.20;99.90;;;;;;2074287;28;20033;-76
2023/01/06 03:06:11;;;;;;;8.60;5.53;;;7.20;99.90;;;;;;2076793;28;20468;-76
2023/01/06 03:07:14;;;;;;;10.25;6.50;;;7.20;99.90;;;;;;2085043;28;20056;-77
2023/01/06 03:08:20;;;;;;;8.98;5.55;;;7.20;99.90;;;;;;2077248;28;20037;-77
2023/01/06 03:09:26;;;;;;;7.35;5.30;;;7.20;99.90;;;;;;2069322;28;20014;-77
2023/01/06 03:10:28;;;;;;;8.05;5.18;;;7.20;99.90;;;;;;2070687;28;20062;-76
2023/01/06 03:11:30;;;;;;;10.70;5.60;;;7.20;99.90;;;;;;2072445;28;21236;-78
2023/01/06 03:12:50;;;;;;;8.82;5.18;;;7.20;99.90;;;;;;2064677;28;20033;-78
2023/01/06 03:14:14;;;;;;;8.13;4.80;;;7.20;99.90;;;;;;2069284;28;20061;-76
2023/01/06 03:15:14;;;;;;;8.90;4.72;;;7.20;99.90;;;;;;2080620;28;20033;-76
2023/01/06 03:16:16;;;;;;;7.75;4.60;;;7.20;99.90;;;;;;2078545;28;20056;-78
2023/01/06 03:17:16;;;;;;;7.85;4.75;;;7.20;99.90;;;;;;2078559;28;20120;-75
2023/01/06 03:18:17;;;;;;;8.68;5.40;;;7.20;99.90;;;;;;2069802;28;20026;-77
2023/01/06 03:19:17;;;;;;;8.65;4.75;;;7.20;99.90;;;;;;2077077;28;20035;-77
2023/01/06 03:20:19;;;;;;;7.90;4.80;;;7.20;99.90;;;;;;2088048;28;20189;-78
2023/01/06 03:21:29;;;;;;;9.68;5.30;;;7.20;99.90;;;;;;2075177;28;20462;-77
2023/01/06 03:22:31;;;;;;;6.25;4.65;;;7.20;99.90;;;;;;2074621;28;20192;-77
2023/01/06 03:23:32;;;;;;;8.95;4.70;;;7.20;99.90;;;;;;2084632;28;20151;-78
2023/01/06 03:24:35;;;;;;;8.32;4.45;;;7.30;99.90;;;;;;2079375;28;20264;-77
2023/01/06 03:25:37;;;;;;;8.32;4.75;;;7.30;99.90;;;;;;2081280;28;20025;-79
2023/01/06 03:26:38;;;;;;;8.18;4.78;;;7.30;99.90;;;;;;2070303;28;20021;-78
2023/01/06 03:27:39;;;;;;;6.20;4.28;;;7.30;99.90;;;;;;2070658;28;20034;-78
2023/01/06 03:28:41;;;;;;;6.57;4.40;;;7.40;99.90;;;;;;2074873;28;20036;-78
2023/01/06 03:29:42;;;;;;;7.18;4.43;;;7.30;99.90;;;;;;2078196;28;20098;-76
2023/01/06 03:30:55;;;;;;;7.80;4.63;;;7.30;99.90;;;;;;2080762;28;20029;-77
2023/01/06 03:32:04;;;;;;;8.50;4.50;;;7.40;99.90;;;;;;2089265;28;20024;-78
2023/01/06 03:33:23;;;;;;;6.85;4.30;;;7.30;99.90;;;;;;2087934;28;20025;-77
2023/01/06 03:34:51;;;;;;;5.85;4.00;;;7.40;99.90;;;;;;2080770;28;20024;-76
2023/01/06 03:36:10;;;;;;;5.80;3.78;;;7.40;99.90;;;;;;2079058;28;20021;-76
2023/01/06 03:37:52;;;;;;;5.95;4.00;;;7.40;99.90;;;;;;2069853;28;20151;-77
2023/01/06 03:39:06;;;;;;;8.68;4.30;;;7.40;99.90;;;;;;2079731;28;20083;-77
2023/01/06 03:40:24;;;;;;;7.55;4.70;;;7.40;99.90;;;;;;2077890;28;20528;-77
2023/01/06 03:43:10;;;;;;;6.70;4.18;;;7.40;99.90;;;;;;2083907;28;20036;-77
2023/01/06 03:44:18;;;;;;;6.93;4.13;;;7.40;99.90;;;;;;2080165;28;20031;-76
2023/01/06 03:45:53;;;;;;;7.03;4.32;;;7.40;99.90;;;;;;2062599;28;20558;-77
2023/01/06 03:47:23;;;;;;;7.07;4.18;;;7.40;99.90;;;;;;2077354;28;20116;-76
2023/01/06 03:48:51;;;;;;;7.72;4.32;;;7.40;99.90;;;;;;2084455;28;20028;-76
2023/01/06 03:50:01;;;;;;;5.63;3.83;;;7.50;99.90;;;;;;2086033;28;20028;-76
2023/01/06 03:51:36;;;;;;;6.82;4.25;;;7.50;99.90;;;;;;2077889;28;20413;-77
2023/01/06 03:52:46;;;;;;;6.15;4.07;;;7.50;99.90;;;;;;2079064;28;20032;-76
2023/01/06 03:53:55;;;;;;;6.60;4.38;;;7.50;99.90;;;;;;2078088;28;20021;-74
2023/01/06 03:55:13;;;;;;;7.20;4.07;;;7.40;99.90;;;;;;2081268;28;20660;-76
2023/01/06 03:56:20;;;;;;;5.70;3.88;;;7.40;99.90;;;;;;2081152;28;20029;-74
2023/01/06 03:57:25;;;;;;;6.97;3.95;;;7.40;99.90;;;;;;2070271;28;20121;-76
2023/01/06 03:58:28;;;;;;;6.82;3.88;;;7.50;99.90;;;;;;2070600;28;20026;-74
2023/01/06 03:59:33;;;;;;;5.28;3.80;;;7.40;99.90;;;;;;2073075;28;20347;-75
2023/01/06 04:00:36;;;;;;;5.68;3.85;;;7.50;99.90;;;;;;2075389;28;20030;-74
2023/01/06 04:01:44;;;;;;;8.43;4.60;;;7.40;99.90;;;;;;2087942;28;20102;-75
2023/01/06 04:02:47;;;;;;;8.32;4.65;;;7.50;99.90;;;;;;2083844;28;20037;-74
2023/01/06 04:03:54;;;;;;;9.65;4.63;;;7.40;99.90;;;;;;2084787;28;20035;-74
2023/01/06 04:05:03;;;;;;;6.78;4.25;;;7.40;99.90;;;;;;2088835;28;20037;-74
2023/01/06 04:06:04;;;;;;;6.20;3.88;;;7.40;99.90;;;;;;2073747;28;20031;-74
2023/01/06 04:07:06;;;;;;;9.15;4.45;;;7.40;99.90;;;;;;2067413;28;20036;-74
2023/01/06 04:08:11;;;;;;;7.68;4.88;;;7.40;99.90;;;;;;2071712;28;20100;-75
2023/01/06 04:09:14;;;;;;;8.40;4.40;;;7.40;99.90;;;;;;2087926;28;20498;-74
2023/01/06 04:10:18;;;;;;;8.85;4.45;;;7.40;99.90;;;;;;2088544;28;20031;-74
2023/01/06 04:12:42;;;;;;;9.50;4.43;;;7.40;99.90;;;;;;2076365;28;20052;-76
2023/01/06 04:13:47;;;;;;;9.77;4.57;;;7.30;99.90;;;;;;2072887;28;20124;-75
2023/01/06 04:14:48;;;;;;;9.05;4.50;;;7.40;99.90;;;;;;2077307;28;20029;-75
2023/01/06 04:15:49;;;;;;;8.55;4.40;;;7.30;99.90;;;;;;2061576;28;20062;-75
2023/01/06 04:16:49;;;;;;;6.38;4.00;;;7.40;99.90;;;;;;2070260;28;20141;-76
2023/01/06 04:17:51;;;;;;;6.53;4.10;;;7.30;99.90;;;;;;2078195;28;20048;-75
2023/01/06 04:18:53;;;;;;;8.93;4.78;;;7.40;99.90;;;;;;2080013;28;20242;-76
2023/01/06 04:19:55;;;;;;;11.18;4.90;;;7.40;99.90;;;;;;2076486;28;20468;-76
2023/01/06 04:20:55;;;;;;;8.02;4.22;;;7.30;99.90;;;;;;2062852;28;20022;-76
2023/01/06 04:22:02;;;;;;;8.85;4.68;;;7.30;99.90;;;;;;2064229;28;20085;-76
2023/01/06 04:23:04;;;;;;;8.88;4.60;;;7.40;99.90;;;;;;2062736;28;20056;-75
2023/01/06 04:24:09;;;;;;;6.82;3.95;;;7.30;99.90;;;;;;2064277;28;20037;-76
2023/01/06 04:25:11;;;;;;;7.15;4.20;;;7.30;99.90;;;;;;2071863;28;20776;-76
2023/01/06 04:26:13;;;;;;;7.90;4.15;;;7.30;99.90;;;;;;2076232;28;20696;-75
2023/01/06 04:27:20;;;;;;;7.38;3.90;;;7.30;99.90;;;;;;2077312;28;20462;-75
2023/01/06 04:28:21;;;;;;;6.35;3.97;;;7.30;99.90;;;;;;2077979;28;20173;-76
2023/01/06 04:29:24;;;;;;;7.93;4.50;;;7.30;99.90;;;;;;2078528;28;20033;-76
2023/01/06 04:30:27;;;;;;;7.70;4.50;;;7.40;99.90;;;;;;2069867;28;20329;-76
2023/01/06 04:31:28;;;;;;;6.28;3.95;;;7.30;99.90;;;;;;2070255;28;20138;-76
2023/01/06 04:32:29;;;;;;;7.63;4.10;;;7.30;99.90;;;;;;2081104;28;20120;-75
2023/01/06 04:33:30;;;;;;;6.20;4.00;;;7.40;99.90;;;;;;2083119;28;20025;-74
2023/01/06 04:34:34;;;;;;;5.90;4.03;;;7.40;99.90;;;;;;2083298;28;20104;-75
2023/01/06 04:35:36;;;;;;;7.13;4.55;;;7.40;99.90;;;;;;2078870;28;20111;-75
2023/01/06 04:36:36;;;;;;;8.00;4.70;;;7.30;99.90;;;;;;2080138;28;20588;-75
2023/01/06 04:37:37;;;;;;;9.15;5.47;;;7.30;99.90;;;;;;2077889;28;20094;-75
2023/01/06 04:38:38;;;;;;;10.43;5.80;;;7.40;99.90;;;;;;2077676;28;20162;-75
2023/01/06 04:39:38;;;;;;;8.63;5.30;;;7.40;99.90;;;;;;2077867;28;20037;-75
2023/01/06 04:40:43;;;;;;;7.80;5.07;;;7.40;99.90;;;;;;2077853;28;20025;-74
2023/01/06 04:41:44;;;;;;;7.05;4.57;;;7.40;99.90;;;;;;2073138;28;20633;-75
2023/01/06 04:44:03;;;;;;;6.78;4.30;;;7.40;99.90;;;;;;2084972;28;20064;-75
2023/01/06 04:45:04;;;;;;;6.55;4.30;;;7.40;99.90;;;;;;2085620;28;20403;-75
2023/01/06 04:46:05;;;;;;;6.60;3.97;;;7.40;99.90;;;;;;2090663;28;20063;-75
2023/01/06 04:47:06;;;;;;;7.30;4.00;;;7.40;99.90;;;;;;2078861;28;20116;-74
2023/01/06 04:48:07;;;;;;;6.07;3.55;;;7.40;99.90;;;;;;2072497;28;20026;-75
2023/01/06 04:49:07;;;;;;;5.13;3.70;;;7.50;99.90;;;;;;2086623;28;20085;-75
2023/01/06 04:50:09;;;;;;;6.63;3.70;;;7.50;99.90;;;;;;2082664;28;20083;-75
2023/01/06 04:51:10;;;;;;;5.15;3.55;;;7.50;99.90;;;;;;2084222;28;20511;-76
2023/01/06 04:52:10;;;;;;;5.28;3.65;;;7.50;99.90;;;;;;2078274;28;20532;-74
2023/01/06 04:53:11;;;;;;;6.93;4.07;;;7.50;99.90;;;;;;2080799;28;20021;-75
2023/01/06 04:54:12;;;;;;;5.93;3.85;;;7.50;99.90;;;;;;2088597;28;20625;-75
2023/01/06 04:55:12;;;;;;;5.22;3.58;;;7.50;99.90;;;;;;2083717;28;20033;-75
2023/01/06 04:56:13;;;;;;;7.22;4.18;;;7.50;99.90;;;;;;2080152;28;20029;-75
2023/01/06 04:57:14;;;;;;;5.18;3.67;;;7.50;99.90;;;;;;2074360;28;20391;-75
2023/01/06 04:58:15;;;;;;;6.78;3.83;;;7.50;99.90;;;;;;2077111;28;20034;-75
2023/01/06 04:59:15;;;;;;;6.57;3.92;;;7.50;99.90;;;;;;2085560;28;20040;-75
2023/01/06 05:00:16;;;;;;;6.22;3.78;;;7.50;99.90;;;;;;2086770;28;20073;-74
2023/01/06 05:01:16;;;;;;;5.45;3.50;;;7.50;99.90;;;;;;2080250;28;20116;-76
2023/01/06 05:02:17;;;;;;;7.10;3.70;;;7.50;99.90;;;;;;2077919;28;20182;-75
2023/01/06 05:03:18;;;;;;;5.35;3.92;;;7.50;99.90;;;;;;2079408;28;20029;-75
2023/01/06 05:04:18;;;;;;;5.90;3.90;;;7.50;99.90;;;;;;2087044;28;20039;-75
2023/01/06 05:05:19;;;;;;;7.95;3.70;;;7.50;99.90;;;;;;2087911;28;20198;-76
2023/01/06 05:06:19;;;;;;;6.07;3.60;;;7.50;99.90;;;;;;2088759;28;20032;-76
2023/01/06 05:07:20;;;;;;;7.82;3.88;;;7.50;99.90;;;;;;2086446;28;20037;-76
2023/01/06 05:08:20;;;;;;;5.65;3.50;;;7.50;99.90;;;;;;2085728;28;20504;-75
2023/01/06 05:09:21;;;;;;;7.25;4.10;;;7.50;99.90;;;;;;2083374;28;20033;-74
2023/01/06 05:10:21;;;;;;;6.68;4.10;;;7.50;99.90;;;;;;2089908;28;20025;-77
2023/01/06 05:11:24;;;;;;;5.68;3.55;;;7.50;99.90;;;;;;2083735;28;20025;-74
2023/01/06 05:12:25;;;;;;;6.35;3.92;;;7.60;99.90;;;;;;2087308;28;20031;-75
2023/01/06 05:13:26;;;;;;;5.75;3.75;;;7.60;99.90;;;;;;2082369;28;20028;-75
2023/01/06 05:14:27;;;;;;;5.15;3.90;;;7.60;99.90;;;;;;2084961;28;20148;-76
2023/01/06 05:15:27;;;;;;;9.07;4.68;;;7.60;99.90;;;;;;2076630;28;20034;-75
2023/01/06 05:16:31;;;;;;;8.18;4.32;;;7.60;99.90;;;;;;2069435;28;20030;-75
2023/01/06 05:17:31;;;;;;;8.75;4.40;;;7.60;99.90;;;;;;2078077;28;20576;-75
2023/01/06 05:18:32;;;;;;;8.55;4.68;;;7.50;99.90;;;;;;2086217;28;20036;-75
2023/01/06 05:19:32;;;;;;;7.85;4.05;;;7.50;99.90;;;;;;2086989;28;20029;-75
2023/01/06 05:20:33;;;;;;;7.25;4.13;;;7.50;99.90;;;;;;2077192;28;20107;-75
2023/01/06 05:21:33;;;;;;;6.95;4.60;;;7.50;99.90;;;;;;2086641;28;20036;-75
2023/01/06 05:22:34;;;;;;;7.57;3.70;;;7.50;99.90;;;;;;2088653;28;20031;-75
2023/01/06 05:23:36;;;;;;;6.72;4.10;;;7.60;99.90;;;;;;2077345;28;20420;-75
2023/01/06 05:24:37;;;;;;;7.57;4.00;;;7.60;99.90;;;;;;2085420;28;20124;-75
2023/01/06 05:25:37;;;;;;;7.30;3.95;;;7.60;99.90;;;;;;2085749;28;20341;-75
2023/01/06 05:26:38;;;;;;;5.55;3.85;;;7.60;99.90;;;;;;2085546;28;20037;-74
2023/01/06 05:27:38;;;;;;;6.38;4.00;;;7.60;99.90;;;;;;2094593;28;20033;-74
2023/01/06 05:28:39;;;;;;;6.05;4.05;;;7.60;99.90;;;;;;2089426;28;20091;-74
2023/01/06 05:29:39;;;;;;;5.13;4.00;;;7.60;99.90;;;;;;2087353;28;20078;-75
2023/01/06 05:30:40;;;;;;;6.00;4.20;;;7.60;99.90;;;;;;2065696;28;20533;-75
2023/01/06 05:31:40;;;;;;;7.00;3.92;;;7.60;99.90;;;;;;2070208;28;20318;-75
2023/01/06 05:32:41;;;;;;;5.72;4.38;;;7.60;99.90;;;;;;2075637;28;20794;-75
2023/01/06 05:33:42;;;;;;;7.53;4.18;;;7.60;99.90;;;;;;2079934;28;20021;-75
2023/01/06 05:34:42;;;;;;;8.15;4.30;;;7.60;99.90;;;;;;2074641;28;20160;-75
2023/01/06 05:35:43;;;;;;;6.82;4.20;;;7.60;99.90;;;;;;2073944;28;20623;-75
2023/01/06 05:36:44;;;;;;;6.55;3.97;;;7.60;99.90;;;;;;2088340;28;20040;-75
2023/01/06 05:37:45;;;;;;;7.28;4.20;;;7.60;99.90;;;;;;2089224;28;20032;-75
2023/01/06 05:38:51;;;;;;;7.22;4.30;;;7.60;99.90;;;;;;2087145;28;20029;-74
2023/01/06 05:39:52;;;;;;;6.57;4.20;;;7.50;99.90;;;;;;2078498;28;20131;-74
2023/01/06 05:40:53;;;;;;;8.18;4.40;;;7.60;99.90;;;;;;2086673;28;20032;-74
2023/01/06 05:41:53;;;;;;;6.07;3.95;;;7.60;99.90;;;;;;2092171;28;20287;-74
2023/01/06 05:42:55;;;;;;;7.97;4.47;;;7.50;99.90;;;;;;2079255;28;20456;-74
2023/01/06 05:43:56;;;;;;;8.27;4.85;;;7.60;99.90;;;;;;2076800;28;20068;-74
2023/01/06 05:44:56;;;;;;;7.30;4.68;;;7.60;99.90;;;;;;2082459;28;20025;-75
2023/01/06 05:45:57;;;;;;;8.38;5.22;;;7.60;99.90;;;;;;2086329;28;20321;-75
2023/01/06 05:46:57;;;;;;;8.93;5.15;;;7.50;99.90;;;;;;2092063;28;20111;-75
2023/01/06 05:47:58;;;;;;;7.22;5.05;;;7.50;99.90;;;;;;2070016;28;20029;-75
2023/01/06 05:49:00;;;;;;;9.32;5.20;;;7.50;99.90;;;;;;2068145;28;20034;-75